Time;durP1;ratioP1;P1;durP2;ratioP2;P2;SDS_P1;SDS_P2;PMS_P1;PMS_P2;Temp;Humidity;BMP_temperature;BMP_pressure;BME280_temperature;BME280_humidity;BME280_pressure;Samples;Min_cycle;Max_cycle;Signal;HPM_P1;HPM_P2
2021/03/29 00:01:56;;;;;;;3.10;0.80;;;7.40;93.50;;;;;;5095943;28;20566;-69
2021/03/29 00:04:23;;;;;;;3.10;0.52;;;7.30;93.50;;;;;;5095248;28;20624;-68
2021/03/29 00:06:49;;;;;;;3.88;0.50;;;7.20;93.60;;;;;;5095570;28;20199;-68
2021/03/29 00:09:17;;;;;;;3.20;0.55;;;7.20;93.80;;;;;;5095601;28;20203;-68
2021/03/29 00:11:44;;;;;;;3.55;0.80;;;7.20;93.90;;;;;;5095141;28;20255;-68
2021/03/29 00:14:11;;;;;;;3.00;0.30;;;7.20;94.00;;;;;;5095122;28;20180;-67
2021/03/29 00:16:39;;;;;;;3.05;0.50;;;7.20;94.10;;;;;;5095491;28;20196;-68
2021/03/29 00:19:08;;;;;;;3.75;0.80;;;7.10;94.20;;;;;;5093979;28;20222;-67
2021/03/29 00:21:36;;;;;;;3.08;0.40;;;7.10;94.80;;;;;;5093982;28;20654;-67
2021/03/29 00:24:06;;;;;;;3.08;0.40;;;7.10;94.60;;;;;;5094836;28;20530;-69
2021/03/29 00:26:33;;;;;;;3.10;0.50;;;7.00;94.70;;;;;;5095592;28;20287;-68
2021/03/29 00:28:58;;;;;;;3.78;1.17;;;7.00;94.90;;;;;;5095093;28;20172;-69
2021/03/29 00:31:24;;;;;;;3.60;0.50;;;7.00;95.20;;;;;;5095382;28;20183;-68
2021/03/29 00:33:52;;;;;;;4.90;1.17;;;7.00;95.40;;;;;;5094510;28;20175;-69
2021/03/29 00:36:23;;;;;;;3.17;0.63;;;6.90;95.70;;;;;;5094787;28;20457;-68
2021/03/29 00:38:51;;;;;;;3.30;0.73;;;7.00;95.70;;;;;;5095240;28;20172;-69
2021/03/29 00:41:17;;;;;;;3.10;0.52;;;7.00;95.80;;;;;;5094697;28;20526;-68
2021/03/29 00:43:45;;;;;;;3.20;0.73;;;7.00;95.90;;;;;;5094527;28;20190;-68
2021/03/29 00:46:13;;;;;;;3.83;0.95;;;7.00;96.10;;;;;;5094552;28;20234;-68
2021/03/29 00:48:41;;;;;;;3.10;0.47;;;7.00;96.30;;;;;;5094439;28;20263;-67
2021/03/29 00:51:17;;;;;;;3.15;0.50;;;7.00;96.50;;;;;;5094562;28;20278;-68
2021/03/29 00:53:45;;;;;;;3.78;0.75;;;7.10;96.70;;;;;;5094444;28;20172;-69
2021/03/29 00:56:12;;;;;;;3.10;0.50;;;7.00;96.90;;;;;;5094485;28;20210;-68
2021/03/29 00:58:39;;;;;;;3.70;0.95;;;7.10;97.00;;;;;;5094816;28;20164;-68
2021/03/29 01:01:19;;;;;;;3.67;1.05;;;7.00;97.10;;;;;;5094405;28;20180;-68
2021/03/29 01:03:53;;;;;;;3.30;0.60;;;7.00;97.20;;;;;;5094125;28;20175;-70
2021/03/29 01:06:22;;;;;;;3.10;0.50;;;7.00;97.30;;;;;;5074245;28;20189;-68
2021/03/29 01:08:52;;;;;;;3.47;0.75;;;7.00;97.60;;;;;;5074380;28;20531;-68
2021/03/29 01:11:26;;;;;;;3.10;0.55;;;7.00;98.00;;;;;;5091754;28;20245;-67
2021/03/29 01:14:02;;;;;;;3.10;0.40;;;6.90;97.90;;;;;;5094210;28;20245;-69
2021/03/29 01:16:33;;;;;;;3.70;0.93;;;7.00;98.10;;;;;;5074095;28;20208;-69
2021/03/29 01:19:00;;;;;;;3.10;0.50;;;6.90;98.20;;;;;;5090283;28;20179;-69
2021/03/29 01:21:59;;;;;;;3.10;0.60;;;6.90;98.40;;;;;;5093018;28;20531;-68
2021/03/29 01:24:40;;;;;;;3.10;0.50;;;6.90;98.50;;;;;;5093271;28;20259;-69
2021/03/29 01:27:06;;;;;;;3.88;1.00;;;6.80;98.50;;;;;;5092402;28;20192;-68
2021/03/29 01:29:32;;;;;;;3.50;0.60;;;6.90;99.00;;;;;;5093763;28;20181;-69
2021/03/29 01:32:00;;;;;;;3.70;0.87;;;6.80;98.70;;;;;;5094478;28;20160;-69
2021/03/29 01:34:29;;;;;;;3.10;0.55;;;6.80;98.80;;;;;;5093376;28;20896;-69
2021/03/29 01:36:57;;;;;;;3.30;0.63;;;6.70;99.00;;;;;;5094004;28;20202;-69
2021/03/29 01:39:24;;;;;;;3.20;0.57;;;6.70;99.00;;;;;;5093424;28;20202;-68
2021/03/29 01:41:50;;;;;;;13.52;1.63;;;6.70;99.10;;;;;;5094146;28;20168;-68
2021/03/29 01:44:17;;;;;;;5.70;1.40;;;6.70;99.30;;;;;;5093297;28;20182;-69
2021/03/29 01:46:43;;;;;;;3.50;1.05;;;6.60;99.40;;;;;;5093792;28;20210;-68
2021/03/29 01:49:09;;;;;;;3.20;0.40;;;6.60;99.70;;;;;;5093519;28;20176;-68
2021/03/29 01:51:35;;;;;;;3.20;0.60;;;6.60;99.80;;;;;;5093845;28;20234;-69
2021/03/29 01:54:03;;;;;;;3.20;0.50;;;6.60;99.80;;;;;;5091361;28;20176;-68
2021/03/29 01:56:29;;;;;;;3.45;0.75;;;6.60;99.90;;;;;;5092884;28;20261;-67
2021/03/29 01:58:54;;;;;;;3.20;0.40;;;6.50;99.90;;;;;;5093391;28;20172;-69
2021/03/29 02:01:20;;;;;;;3.27;0.60;;;6.40;99.90;;;;;;5093559;28;20229;-68
2021/03/29 02:03:48;;;;;;;3.30;0.50;;;6.30;99.90;;;;;;5093090;28;20626;-68
2021/03/29 02:06:14;;;;;;;3.50;0.63;;;6.30;99.90;;;;;;5093550;28;20206;-69
2021/03/29 02:08:43;;;;;;;6.05;0.90;;;6.30;99.90;;;;;;5093072;28;20191;-69
2021/03/29 02:11:09;;;;;;;3.25;0.30;;;6.20;99.90;;;;;;5093396;28;20172;-69
2021/03/29 02:13:40;;;;;;;3.50;0.98;;;6.10;99.90;;;;;;5093220;28;20172;-68
2021/03/29 02:16:09;;;;;;;3.30;0.60;;;6.10;99.90;;;;;;5093099;28;20208;-69
2021/03/29 02:18:41;;;;;;;3.17;0.40;;;6.10;99.90;;;;;;5093241;28;20180;-68
2021/03/29 02:21:10;;;;;;;3.70;0.95;;;6.00;99.90;;;;;;5093505;28;20168;-68
2021/03/29 02:23:37;;;;;;;3.30;0.50;;;5.90;99.90;;;;;;5092790;28;20183;-69
2021/03/29 02:26:05;;;;;;;3.20;0.40;;;5.80;99.90;;;;;;5093096;28;20192;-69
2021/03/29 02:28:31;;;;;;;4.72;1.13;;;5.90;99.90;;;;;;5091880;28;20176;-69
2021/03/29 02:31:00;;;;;;;4.03;0.80;;;5.90;99.90;;;;;;5092125;28;20198;-67
2021/03/29 02:33:27;;;;;;;3.40;0.57;;;5.90;99.90;;;;;;5092804;28;20176;-66
2021/03/29 02:35:53;;;;;;;3.88;0.90;;;5.80;99.90;;;;;;5092886;28;20535;-67
2021/03/29 02:38:19;;;;;;;3.40;0.93;;;5.90;99.90;;;;;;5092607;28;20512;-67
2021/03/29 02:40:49;;;;;;;3.22;0.45;;;5.80;99.90;;;;;;5091528;28;20626;-68
2021/03/29 02:43:15;;;;;;;3.20;0.40;;;5.80;99.90;;;;;;5093315;28;20241;-68
2021/03/29 02:45:46;;;;;;;3.97;0.80;;;5.70;99.90;;;;;;5092832;28;20556;-67
2021/03/29 02:48:15;;;;;;;3.30;0.50;;;5.70;99.90;;;;;;5091639;28;20169;-67
2021/03/29 02:50:43;;;;;;;3.20;0.40;;;5.70;99.90;;;;;;5093345;28;20196;-67
2021/03/29 02:53:22;;;;;;;3.40;0.77;;;5.60;99.90;;;;;;5092821;28;20161;-67
2021/03/29 02:55:49;;;;;;;3.22;0.45;;;5.60;99.90;;;;;;5091053;28;20674;-68
2021/03/29 02:58:19;;;;;;;3.30;0.50;;;5.50;99.90;;;;;;5092797;28;20187;-68
2021/03/29 03:00:45;;;;;;;3.30;0.52;;;5.50;99.90;;;;;;5093119;28;20167;-69
2021/03/29 03:03:12;;;;;;;3.30;0.50;;;5.50;99.90;;;;;;5092656;28;20260;-66
2021/03/29 03:05:39;;;;;;;3.85;1.00;;;5.50;99.90;;;;;;5092434;28;20436;-67
2021/03/29 03:08:06;;;;;;;3.78;1.33;;;5.50;99.90;;;;;;5094611;28;20258;-67
2021/03/29 03:10:32;;;;;;;3.20;0.40;;;5.50;99.90;;;;;;5096729;28;20199;-67
2021/03/29 03:12:58;;;;;;;3.40;0.50;;;5.50;99.90;;;;;;5096672;28;20271;-67
2021/03/29 03:15:27;;;;;;;5.28;0.95;;;5.50;99.90;;;;;;5096047;28;20199;-68
2021/03/29 03:17:55;;;;;;;3.22;0.40;;;5.40;99.90;;;;;;5096045;28;20184;-67
2021/03/29 03:20:21;;;;;;;3.17;0.47;;;5.40;99.90;;;;;;5095305;28;20176;-67
2021/03/29 03:23:04;;;;;;;3.25;0.40;;;5.40;99.90;;;;;;5095034;28;20217;-67
2021/03/29 03:25:42;;;;;;;3.50;0.82;;;5.40;99.90;;;;;;5096141;28;20191;-67
2021/03/29 03:28:10;;;;;;;3.30;0.70;;;5.30;99.90;;;;;;5094973;28;20868;-68
2021/03/29 03:30:38;;;;;;;3.40;0.80;;;5.30;99.90;;;;;;5096516;28;20221;-68
2021/03/29 03:33:06;;;;;;;3.28;0.40;;;5.20;99.90;;;;;;5094787;28;20172;-69
2021/03/29 03:35:33;;;;;;;3.30;0.50;;;5.20;99.90;;;;;;5095893;28;20208;-66
2021/03/29 03:38:02;;;;;;;3.70;0.80;;;5.10;99.90;;;;;;5096040;28;20175;-68
2021/03/29 03:40:30;;;;;;;3.67;0.75;;;5.10;99.90;;;;;;5095152;28;20615;-66
2021/03/29 03:43:00;;;;;;;3.78;0.73;;;5.20;99.90;;;;;;5094357;28;20172;-67
2021/03/29 03:45:29;;;;;;;3.40;0.60;;;5.10;99.90;;;;;;5074098;28;20224;-67
2021/03/29 03:47:57;;;;;;;3.40;0.70;;;5.10;99.90;;;;;;5075769;28;20191;-68
2021/03/29 03:50:23;;;;;;;4.25;0.95;;;5.10;99.90;;;;;;5095202;28;20172;-67
2021/03/29 03:52:50;;;;;;;3.40;0.55;;;5.00;99.90;;;;;;5096109;28;20179;-70
2021/03/29 03:55:17;;;;;;;3.40;0.60;;;5.00;99.90;;;;;;5093884;28;20278;-67
2021/03/29 03:57:43;;;;;;;4.05;0.60;;;5.00;99.90;;;;;;5095972;28;20264;-70
2021/03/29 04:00:12;;;;;;;3.40;0.50;;;5.00;99.90;;;;;;5095180;28;20168;-67
2021/03/29 04:02:38;;;;;;;3.40;0.40;;;5.00;99.90;;;;;;5095804;28;20174;-67
2021/03/29 04:05:06;;;;;;;3.35;0.40;;;5.10;99.90;;;;;;5094795;28;20172;-68
2021/03/29 04:07:31;;;;;;;3.60;0.70;;;5.00;99.90;;;;;;5095928;28;20196;-68
2021/03/29 04:10:13;;;;;;;3.40;0.43;;;5.00;99.90;;;;;;5095202;28;20214;-68
2021/03/29 04:12:39;;;;;;;3.40;0.50;;;5.00;99.90;;;;;;5095593;28;20414;-68
2021/03/29 04:15:05;;;;;;;3.40;0.40;;;5.00;99.90;;;;;;5094901;28;20668;-67
2021/03/29 04:17:31;;;;;;;3.80;0.60;;;5.00;99.90;;;;;;5095413;28;20418;-69
2021/03/29 04:19:57;;;;;;;3.60;0.90;;;5.00;99.90;;;;;;5094395;28;20255;-67
2021/03/29 04:22:22;;;;;;;3.40;0.43;;;5.00;99.90;;;;;;5095519;28;20161;-68
2021/03/29 04:24:48;;;;;;;3.70;0.50;;;5.00;99.90;;;;;;5092972;28;20183;-67
2021/03/29 04:27:14;;;;;;;4.00;0.70;;;5.10;99.90;;;;;;5093741;28;20218;-68
2021/03/29 04:29:39;;;;;;;3.50;0.60;;;5.10;99.90;;;;;;5095136;28;20619;-67
2021/03/29 04:32:07;;;;;;;3.40;0.60;;;5.10;99.90;;;;;;5095293;28;20168;-69
2021/03/29 04:34:33;;;;;;;4.22;0.82;;;5.10;99.90;;;;;;5094500;28;20179;-67
2021/03/29 04:36:59;;;;;;;3.40;0.40;;;5.20;99.90;;;;;;5095095;28;20204;-68
2021/03/29 04:39:24;;;;;;;3.40;0.60;;;5.30;99.90;;;;;;5094600;28;20243;-67
2021/03/29 04:41:50;;;;;;;3.60;0.97;;;5.30;99.90;;;;;;5094584;28;20189;-67
2021/03/29 04:44:15;;;;;;;4.17;1.13;;;5.30;99.90;;;;;;5094770;28;20164;-67
2021/03/29 04:46:41;;;;;;;3.50;0.50;;;5.30;99.90;;;;;;5094964;28;20704;-68
2021/03/29 04:49:07;;;;;;;9.80;0.97;;;5.30;99.90;;;;;;5093028;28;20642;-69
2021/03/29 04:51:32;;;;;;;3.70;0.80;;;5.30;99.90;;;;;;5094987;28;20172;-67
2021/03/29 04:53:58;;;;;;;3.40;0.40;;;5.30;99.90;;;;;;5094005;28;20183;-69
2021/03/29 04:56:24;;;;;;;4.10;1.15;;;5.40;99.90;;;;;;5094552;28;20596;-65
2021/03/29 04:58:50;;;;;;;3.70;1.00;;;5.40;99.90;;;;;;5094491;28;20221;-65
2021/03/29 05:01:16;;;;;;;3.50;0.60;;;5.40;99.90;;;;;;5094684;28;20164;-66
2021/03/29 05:03:41;;;;;;;3.80;0.80;;;5.50;99.90;;;;;;5093898;28;20634;-68
2021/03/29 05:06:07;;;;;;;3.40;0.43;;;5.40;99.90;;;;;;5094591;28;20532;-68
2021/03/29 05:08:32;;;;;;;3.40;0.40;;;5.40;99.90;;;;;;5094308;28;20279;-67
2021/03/29 05:10:58;;;;;;;3.47;0.40;;;5.40;99.90;;;;;;5094636;28;20226;-66
2021/03/29 05:13:24;;;;;;;3.50;0.70;;;5.50;99.90;;;;;;5093659;28;20172;-66
2021/03/29 05:15:49;;;;;;;3.60;0.50;;;5.50;99.90;;;;;;5093853;28;20230;-67
2021/03/29 05:18:15;;;;;;;3.50;0.60;;;5.50;99.90;;;;;;5093376;28;20191;-68
2021/03/29 05:20:41;;;;;;;3.60;0.50;;;5.50;99.90;;;;;;5094238;28;20167;-67
2021/03/29 05:23:06;;;;;;;3.70;0.60;;;5.60;99.90;;;;;;5094245;28;20523;-67
2021/03/29 05:25:32;;;;;;;3.37;0.40;;;5.60;99.90;;;;;;5093626;28;20191;-68
2021/03/29 05:27:58;;;;;;;3.37;0.30;;;5.70;99.90;;;;;;5093548;28;20176;-67
2021/03/29 05:30:23;;;;;;;5.27;2.00;;;5.80;99.90;;;;;;5093586;28;20180;-67
2021/03/29 05:32:49;;;;;;;3.60;0.63;;;5.90;99.90;;;;;;5092184;28;20266;-67
2021/03/29 05:35:15;;;;;;;3.40;0.40;;;6.00;99.90;;;;;;5093433;28;20445;-68
2021/03/29 05:37:40;;;;;;;3.80;1.10;;;6.10;99.90;;;;;;5094078;28;20176;-69
2021/03/29 05:40:07;;;;;;;3.97;0.87;;;6.20;99.90;;;;;;5094031;28;20611;-68
2021/03/29 05:42:33;;;;;;;3.50;0.50;;;6.30;99.90;;;;;;5094116;28;20217;-67
2021/03/29 05:45:03;;;;;;;3.60;0.53;;;6.40;99.90;;;;;;5093561;28;20168;-68
2021/03/29 05:47:29;;;;;;;4.13;0.75;;;6.50;99.90;;;;;;5086342;28;20432;-65
2021/03/29 05:49:58;;;;;;;3.40;0.30;;;6.70;99.90;;;;;;5093687;28;20188;-66
2021/03/29 05:52:24;;;;;;;3.83;0.52;;;6.80;99.90;;;;;;5093473;28;20214;-67
2021/03/29 05:54:50;;;;;;;3.70;0.80;;;6.90;99.90;;;;;;5093264;28;20168;-67
2021/03/29 05:57:17;;;;;;;3.43;0.50;;;7.00;99.90;;;;;;5093282;28;20233;-67
2021/03/29 05:59:43;;;;;;;3.60;0.70;;;7.00;99.90;;;;;;5093536;28;20246;-67
2021/03/29 06:02:30;;;;;;;3.70;0.73;;;7.10;99.90;;;;;;5091984;28;20167;-66
2021/03/29 06:04:56;;;;;;;3.60;0.50;;;7.10;99.90;;;;;;5093025;28;20180;-68
2021/03/29 06:07:29;;;;;;;3.70;0.68;;;7.20;99.90;;;;;;5092251;28;20170;-66
2021/03/29 06:10:16;;;;;;;3.38;0.50;;;7.30;99.90;;;;;;5093445;28;20205;-67
2021/03/29 06:12:46;;;;;;;3.60;0.70;;;7.40;99.90;;;;;;5093303;28;20200;-67
2021/03/29 06:15:13;;;;;;;3.40;0.40;;;7.50;99.90;;;;;;5092731;28;20203;-66
2021/03/29 06:17:39;;;;;;;6.05;1.27;;;7.50;99.90;;;;;;5093185;28;20186;-67
2021/03/29 06:20:06;;;;;;;3.42;0.40;;;7.60;99.90;;;;;;5093116;28;20184;-66
2021/03/29 06:22:40;;;;;;;3.60;0.73;;;7.70;99.90;;;;;;5093413;28;20169;-66
2021/03/29 06:25:18;;;;;;;3.50;0.55;;;7.80;99.90;;;;;;5092881;28;20175;-66
2021/03/29 06:27:44;;;;;;;3.80;0.60;;;8.00;99.90;;;;;;5093136;28;20648;-69
2021/03/29 06:30:16;;;;;;;3.87;0.73;;;8.20;99.90;;;;;;5093350;28;20172;-65
2021/03/29 06:32:58;;;;;;;3.40;0.50;;;8.40;99.90;;;;;;5092551;28;20179;-66
2021/03/29 06:35:31;;;;;;;3.67;0.77;;;8.60;99.90;;;;;;5092870;28;20210;-68
2021/03/29 06:38:13;;;;;;;4.20;1.17;;;8.80;99.90;;;;;;5093224;28;20169;-68
2021/03/29 06:40:55;;;;;;;3.50;0.65;;;9.00;99.90;;;;;;5093082;28;20630;-64
2021/03/29 06:43:37;;;;;;;4.07;0.95;;;9.10;99.90;;;;;;5095112;28;20164;-66
2021/03/29 06:46:18;;;;;;;3.90;0.75;;;9.20;99.70;;;;;;5096907;28;20234;-66
2021/03/29 06:48:44;;;;;;;18.75;1.13;;;9.30;99.10;;;;;;5096971;28;20570;-69
2021/03/29 06:51:11;;;;;;;4.07;1.13;;;9.50;98.50;;;;;;5096957;28;20229;-67
2021/03/29 06:53:45;;;;;;;3.72;0.70;;;9.70;97.90;;;;;;5095685;28;20585;-65
2021/03/29 06:56:31;;;;;;;3.78;0.80;;;9.80;97.60;;;;;;5096414;28;20203;-65
2021/03/29 06:59:24;;;;;;;3.40;0.50;;;9.90;97.70;;;;;;5086485;28;20184;-70
2021/03/29 07:01:51;;;;;;;3.38;0.47;;;10.00;96.60;;;;;;5097242;28;20163;-68
2021/03/29 07:04:21;;;;;;;8.75;1.00;;;10.20;96.20;;;;;;5096323;28;20252;-70
2021/03/29 07:06:48;;;;;;;3.80;1.05;;;10.20;96.10;;;;;;5096251;28;20270;-67
2021/03/29 07:09:15;;;;;;;3.40;0.50;;;10.30;96.90;;;;;;5096730;28;20180;-66
2021/03/29 07:11:43;;;;;;;3.72;0.80;;;10.50;96.50;;;;;;5094978;28;20171;-69
2021/03/29 07:14:09;;;;;;;3.80;1.02;;;10.70;96.40;;;;;;5094835;28;20168;-68
2021/03/29 07:16:35;;;;;;;3.50;0.60;;;11.00;95.60;;;;;;5094871;28;20246;-69
2021/03/29 07:19:04;;;;;;;3.80;0.93;;;11.30;95.00;;;;;;5095686;28;20422;-70
2021/03/29 07:21:30;;;;;;;3.43;0.57;;;11.60;94.60;;;;;;5092013;28;20193;-70
2021/03/29 07:24:05;;;;;;;3.50;0.50;;;12.20;93.90;;;;;;5084641;28;20425;-71
2021/03/29 07:26:41;;;;;;;3.40;0.50;;;12.70;92.50;;;;;;5074520;28;20439;-71
2021/03/29 07:29:28;;;;;;;3.77;1.70;;;13.20;91.70;;;;;;5075646;28;20431;-70
2021/03/29 07:31:55;;;;;;;4.27;1.03;;;13.80;91.00;;;;;;5075917;28;20964;-69
2021/03/29 07:34:44;;;;;;;3.63;0.83;;;14.20;90.10;;;;;;5088135;28;20426;-71
2021/03/29 07:37:33;;;;;;;3.70;0.90;;;14.50;87.70;;;;;;5096010;28;20429;-71
2021/03/29 07:40:04;;;;;;;6.50;1.20;;;14.80;86.30;;;;;;5096136;28;20401;-70
2021/03/29 07:42:29;;;;;;;3.50;1.10;;;15.10;82.30;;;;;;5094636;28;20410;-66
2021/03/29 07:45:00;;;;;;;3.50;0.73;;;15.40;81.20;;;;;;5095522;28;20909;-67
2021/03/29 07:47:45;;;;;;;3.67;1.00;;;15.80;79.50;;;;;;5093425;28;20175;-67
2021/03/29 07:50:31;;;;;;;3.60;1.17;;;16.50;76.90;;;;;;5080700;28;20429;-64
2021/03/29 07:52:58;;;;;;;3.60;1.37;;;17.30;74.10;;;;;;5084780;28;20420;-63
2021/03/29 07:55:26;;;;;;;3.50;0.90;;;18.00;72.60;;;;;;5093527;28;20454;-65
2021/03/29 07:57:55;;;;;;;3.57;1.03;;;18.50;70.80;;;;;;5095685;28;20411;-67
2021/03/29 08:00:23;;;;;;;3.90;0.97;;;18.70;67.90;;;;;;5095613;28;20412;-66
2021/03/29 08:02:50;;;;;;;4.03;1.10;;;19.00;65.60;;;;;;5095577;28;20985;-65
2021/03/29 08:05:34;;;;;;;4.03;1.23;;;19.50;62.10;;;;;;5094773;28;20408;-65
2021/03/29 08:08:03;;;;;;;5.90;1.13;;;20.00;60.40;;;;;;5095578;28;20898;-67
2021/03/29 08:10:58;;;;;;;4.27;1.30;;;21.10;58.60;;;;;;5094706;28;20422;-66
2021/03/29 08:13:56;;;;;;;3.83;1.27;;;22.00;57.60;;;;;;5092489;28;20517;-65
2021/03/29 08:16:25;;;;;;;3.47;1.10;;;22.90;54.90;;;;;;5090975;28;20474;-66
2021/03/29 08:19:18;;;;;;;4.20;1.70;;;23.90;53.20;;;;;;5093646;28;20444;-66
2021/03/29 08:22:03;;;;;;;4.53;1.60;;;24.80;51.60;;;;;;5092052;28;20722;-63
2021/03/29 08:24:31;;;;;;;3.37;1.27;;;25.40;50.80;;;;;;5090729;28;20410;-67
2021/03/29 08:27:00;;;;;;;3.47;1.53;;;26.00;49.30;;;;;;5093177;28;20445;-66
2021/03/29 08:29:29;;;;;;;3.83;1.77;;;26.40;48.30;;;;;;5091915;28;20897;-66
2021/03/29 08:31:59;;;;;;;5.17;1.90;;;26.70;46.70;;;;;;5088250;28;20891;-66
2021/03/29 08:34:26;;;;;;;4.00;2.03;;;27.10;45.40;;;;;;5090311;28;20768;-65
2021/03/29 08:37:02;;;;;;;3.37;1.33;;;27.50;45.10;;;;;;5092702;28;20489;-66
2021/03/29 08:39:36;;;;;;;3.57;1.40;;;27.80;44.00;;;;;;5087141;28;20406;-66
2021/03/29 08:42:03;;;;;;;3.43;1.53;;;27.90;44.30;;;;;;5090058;28;20406;-67
2021/03/29 08:44:30;;;;;;;3.17;1.17;;;28.00;43.40;;;;;;5091278;28;20433;-67
2021/03/29 08:46:57;;;;;;;3.63;1.67;;;28.40;42.30;;;;;;5093615;28;20392;-65
2021/03/29 08:49:26;;;;;;;2.87;1.23;;;29.00;41.00;;;;;;5094476;28;20415;-65
2021/03/29 08:51:53;;;;;;;3.10;1.70;;;29.00;41.10;;;;;;5094471;28;20422;-66
2021/03/29 08:54:19;;;;;;;3.20;1.30;;;28.80;40.70;;;;;;5094144;28;20381;-65
2021/03/29 08:56:48;;;;;;;2.97;1.10;;;28.70;41.10;;;;;;5094326;28;21006;-65
2021/03/29 08:59:15;;;;;;;2.87;1.10;;;28.80;41.20;;;;;;5093881;28;20389;-66
2021/03/29 09:01:42;;;;;;;3.93;1.73;;;29.20;40.80;;;;;;5094139;28;20495;-66
2021/03/29 09:04:10;;;;;;;3.37;1.70;;;29.90;39.80;;;;;;5094309;28;20384;-66
2021/03/29 09:06:36;;;;;;;3.10;1.60;;;29.90;38.80;;;;;;5092503;28;20519;-64
2021/03/29 09:09:16;;;;;;;3.10;1.10;;;29.60;38.30;;;;;;5094011;28;20393;-66
2021/03/29 09:11:44;;;;;;;4.50;2.23;;;29.40;39.20;;;;;;5094227;28;20888;-66
2021/03/29 09:14:11;;;;;;;3.33;1.53;;;29.50;39.30;;;;;;5093843;28;20422;-66
2021/03/29 09:16:40;;;;;;;3.43;1.37;;;29.60;38.60;;;;;;5093501;28;20457;-65
2021/03/29 09:19:14;;;;;;;2.70;1.23;;;29.60;37.90;;;;;;5094349;28;20467;-65
2021/03/29 09:21:40;;;;;;;2.73;1.30;;;29.60;37.50;;;;;;5094310;28;20414;-66
2021/03/29 09:24:21;;;;;;;2.80;1.40;;;29.60;38.20;;;;;;5092709;28;20489;-65
2021/03/29 09:26:57;;;;;;;2.80;1.30;;;29.40;38.10;;;;;;5089685;28;20464;-65
2021/03/29 09:29:41;;;;;;;2.37;0.87;;;29.10;38.10;;;;;;5073579;28;20411;-66
2021/03/29 09:32:19;;;;;;;2.80;1.30;;;29.30;37.20;;;;;;5089060;28;20507;-66
2021/03/29 09:34:47;;;;;;;3.53;1.20;;;29.30;36.90;;;;;;5092375;28;20418;-64
2021/03/29 09:37:16;;;;;;;3.00;1.40;;;29.30;37.70;;;;;;5094064;28;20875;-65
2021/03/29 09:39:42;;;;;;;3.00;0.97;;;29.40;37.30;;;;;;5093577;28;20497;-67
2021/03/29 09:42:08;;;;;;;2.77;1.10;;;29.40;37.10;;;;;;5093808;28;20515;-65
2021/03/29 09:44:36;;;;;;;2.40;0.90;;;29.50;37.30;;;;;;5093384;28;20529;-64
2021/03/29 09:47:01;;;;;;;2.30;0.77;;;29.50;36.90;;;;;;5093680;28;20562;-67
2021/03/29 09:49:30;;;;;;;2.87;1.00;;;29.60;37.30;;;;;;5093738;28;20393;-65
2021/03/29 09:52:08;;;;;;;2.60;1.20;;;29.50;36.80;;;;;;5093691;28;20519;-64
2021/03/29 09:54:37;;;;;;;3.07;0.93;;;29.50;36.40;;;;;;5093245;28;20376;-65
2021/03/29 09:57:15;;;;;;;2.57;1.10;;;29.30;37.20;;;;;;5093579;28;20404;-66
2021/03/29 09:59:43;;;;;;;2.40;1.00;;;29.70;37.40;;;;;;5093735;28;20767;-65
2021/03/29 10:02:20;;;;;;;2.40;1.10;;;29.90;36.90;;;;;;5093079;28;20422;-67
2021/03/29 10:04:57;;;;;;;2.37;0.97;;;30.20;36.10;;;;;;5092994;28;20491;-68
2021/03/29 10:07:23;;;;;;;2.43;0.90;;;30.40;35.50;;;;;;5093143;28;20385;-65
2021/03/29 10:10:00;;;;;;;3.43;1.00;;;30.30;34.80;;;;;;5092601;28;20433;-66
2021/03/29 10:12:28;;;;;;;2.80;1.20;;;30.20;35.60;;;;;;5093410;28;20535;-68
2021/03/29 10:15:07;;;;;;;2.37;1.00;;;30.00;35.90;;;;;;5074960;28;20450;-61
2021/03/29 10:17:33;;;;;;;2.80;1.10;;;30.00;36.10;;;;;;5072405;28;20737;-66
2021/03/29 10:20:07;;;;;;;3.50;1.03;;;29.50;36.00;;;;;;5073160;28;20490;-66
2021/03/29 10:22:32;;;;;;;3.53;1.63;;;29.20;35.80;;;;;;5090808;28;20397;-65
2021/03/29 10:25:06;;;;;;;2.50;1.10;;;28.70;37.60;;;;;;5092490;28;20399;-65
2021/03/29 10:27:45;;;;;;;3.33;1.00;;;28.60;36.70;;;;;;5093288;28;20176;-65
2021/03/29 10:30:18;;;;;;;2.93;1.20;;;28.40;37.40;;;;;;5093736;28;20878;-71
2021/03/29 10:32:54;;;;;;;2.60;0.90;;;28.10;36.70;;;;;;5093323;28;20377;-69
2021/03/29 10:35:22;;;;;;;3.73;1.10;;;27.90;37.10;;;;;;5092591;28;20461;-66
2021/03/29 10:37:48;;;;;;;2.50;1.00;;;27.40;38.10;;;;;;5092318;28;20406;-65
2021/03/29 10:40:15;;;;;;;2.47;1.00;;;27.50;38.10;;;;;;5077621;28;20390;-66
2021/03/29 10:42:42;;;;;;;3.23;1.30;;;27.90;38.10;;;;;;5090917;28;20400;-66
2021/03/29 10:45:10;;;;;;;2.53;0.97;;;28.20;37.30;;;;;;5086528;28;20484;-66
2021/03/29 10:47:37;;;;;;;2.70;1.10;;;27.80;36.90;;;;;;5072175;28;20747;-69
2021/03/29 10:50:05;;;;;;;3.10;1.23;;;27.80;37.60;;;;;;5073388;28;20840;-70
2021/03/29 10:52:31;;;;;;;2.43;0.90;;;28.00;37.40;;;;;;5092619;28;20385;-70
2021/03/29 10:54:56;;;;;;;2.83;1.10;;;28.10;37.10;;;;;;5092765;28;20773;-66
2021/03/29 10:57:22;;;;;;;3.53;1.20;;;28.00;37.00;;;;;;5093242;28;20196;-65
2021/03/29 10:59:48;;;;;;;2.90;1.13;;;27.90;37.50;;;;;;5092749;28;20183;-65
2021/03/29 11:02:14;;;;;;;2.53;1.03;;;27.70;37.90;;;;;;5092945;28;20178;-66
2021/03/29 11:04:40;;;;;;;3.30;1.33;;;27.20;37.20;;;;;;5092656;28;20169;-68
2021/03/29 11:07:06;;;;;;;2.70;1.10;;;27.00;38.90;;;;;;5091274;28;20463;-68
2021/03/29 11:09:32;;;;;;;2.80;1.50;;;26.90;39.80;;;;;;5091430;28;20172;-69
2021/03/29 11:11:58;;;;;;;3.97;1.67;;;27.10;39.20;;;;;;5092861;28;20403;-69
2021/03/29 11:14:23;;;;;;;4.80;1.90;;;27.00;38.90;;;;;;5091946;28;20267;-70
2021/03/29 11:16:53;;;;;;;4.50;1.30;;;26.40;38.90;;;;;;5092743;28;20430;-69
2021/03/29 11:19:20;;;;;;;3.23;1.10;;;25.60;38.90;;;;;;5091630;28;20187;-70
2021/03/29 11:21:50;;;;;;;2.70;0.80;;;24.90;39.80;;;;;;5091326;28;20448;-68
2021/03/29 11:24:15;;;;;;;3.33;0.90;;;24.30;40.80;;;;;;5092100;28;20409;-68
2021/03/29 11:26:41;;;;;;;3.77;1.73;;;23.30;42.00;;;;;;5091760;28;20824;-65
2021/03/29 11:29:07;;;;;;;2.50;0.73;;;22.70;43.20;;;;;;5094530;28;20209;-67
2021/03/29 11:31:37;;;;;;;4.10;2.07;;;22.20;42.30;;;;;;5096138;28;20428;-65
2021/03/29 11:34:04;;;;;;;4.40;1.40;;;21.90;42.70;;;;;;5075917;28;20408;-66
2021/03/29 11:36:29;;;;;;;3.73;1.20;;;21.70;43.20;;;;;;5076268;28;20421;-67
2021/03/29 11:38:56;;;;;;;4.50;1.10;;;21.50;43.30;;;;;;5076152;28;20406;-69
2021/03/29 11:41:21;;;;;;;3.20;0.93;;;21.20;42.90;;;;;;5076042;28;20202;-67
2021/03/29 11:43:47;;;;;;;3.77;1.00;;;20.80;42.60;;;;;;5075717;28;20419;-68
2021/03/29 11:46:13;;;;;;;3.00;1.10;;;20.70;45.20;;;;;;5075855;28;20209;-67
2021/03/29 11:48:39;;;;;;;3.10;1.40;;;20.70;44.60;;;;;;5094868;28;20421;-66
2021/03/29 11:51:06;;;;;;;3.70;1.20;;;20.50;44.70;;;;;;5095799;28;20429;-67
2021/03/29 11:53:32;;;;;;;6.87;1.23;;;20.50;45.90;;;;;;5095785;28;20666;-67
2021/03/29 11:55:59;;;;;;;3.30;2.00;;;20.60;46.00;;;;;;5095089;28;20587;-68
2021/03/29 11:58:25;;;;;;;3.13;1.10;;;20.70;45.50;;;;;;5096025;28;20203;-67
2021/03/29 12:00:57;;;;;;;4.27;1.00;;;20.70;45.50;;;;;;5095573;28;20425;-67
2021/03/29 12:05:59;;;;;;;3.23;1.10;;;20.70;45.70;;;;;;5095284;28;20483;-66
2021/03/29 12:13:35;;;;;;;3.23;1.13;;;20.70;43.20;;;;;;5095828;28;20492;-66
2021/03/29 12:16:03;;;;;;;3.67;1.37;;;20.70;43.60;;;;;;5094510;28;20446;-64
2021/03/29 12:21:05;;;;;;;2.77;1.13;;;20.60;42.60;;;;;;5095420;28;20759;-67
2021/03/29 12:23:33;;;;;;;2.53;1.00;;;20.50;42.10;;;;;;5095258;28;20511;-65
2021/03/29 12:26:01;;;;;;;4.23;1.43;;;20.50;43.30;;;;;;5094851;28;20465;-66
2021/03/29 12:28:30;;;;;;;4.00;0.90;;;20.50;43.80;;;;;;5095276;28;20412;-67
2021/03/29 12:30:57;;;;;;;3.10;0.90;;;20.60;44.00;;;;;;5093649;28;20425;-66
2021/03/29 12:33:24;;;;;;;3.07;1.37;;;20.50;42.30;;;;;;5095256;28;20517;-67
2021/03/29 12:35:53;;;;;;;3.50;0.90;;;20.50;42.80;;;;;;5094624;28;20437;-65
2021/03/29 12:38:20;;;;;;;2.90;1.10;;;20.50;42.80;;;;;;5094960;28;20418;-66
2021/03/29 12:40:46;;;;;;;2.73;1.00;;;20.50;42.50;;;;;;5094295;28;20414;-66
2021/03/29 12:43:16;;;;;;;4.23;1.17;;;20.50;42.80;;;;;;5094707;28;20435;-67
2021/03/29 12:45:44;;;;;;;3.13;1.00;;;20.50;43.50;;;;;;5094132;28;21033;-65
2021/03/29 12:48:12;;;;;;;3.17;1.37;;;20.60;43.90;;;;;;5094503;28;20402;-67
2021/03/29 12:50:38;;;;;;;2.73;0.87;;;20.70;43.70;;;;;;5094942;28;20441;-66
2021/03/29 12:53:04;;;;;;;2.80;1.00;;;20.80;43.50;;;;;;5094838;28;20390;-66
2021/03/29 12:55:30;;;;;;;2.80;1.07;;;20.90;43.50;;;;;;5094037;28;20430;-66
2021/03/29 12:57:57;;;;;;;3.47;1.20;;;21.00;42.80;;;;;;5094566;28;20501;-65
2021/03/29 13:00:29;;;;;;;3.30;0.77;;;21.00;42.60;;;;;;5094216;28;20525;-66
2021/03/29 13:02:56;;;;;;;2.90;0.80;;;21.10;41.50;;;;;;5094608;28;20412;-65
2021/03/29 13:05:33;;;;;;;3.90;0.90;;;21.00;42.20;;;;;;5093673;28;20458;-68
2021/03/29 13:08:07;;;;;;;3.43;1.00;;;21.00;41.10;;;;;;5094310;28;20415;-67
2021/03/29 13:13:03;;;;;;;2.50;0.80;;;20.80;43.30;;;;;;5094409;28;20519;-66
2021/03/29 13:15:29;;;;;;;4.20;0.80;;;20.90;42.80;;;;;;5093667;28;20426;-68
2021/03/29 13:17:55;;;;;;;3.53;1.23;;;20.90;42.80;;;;;;5093990;28;20430;-66